Terminal Aerodrome Forecast
Issued by NWS

Home | Current Version | Previous Version | Graphics & Text | Print | Product List | Glossary Off
Versions: 1 2 3 4 5 6 7 8 9 10 11 12

000
FTUS43 KICT 032332
TAFSLN
TAF
KSLN 032332Z 0400/0424 18009KT P6SM SCT070 BKN120
     FM041200 20011KT P6SM VCTS SCT050 BKN080CB
     FM041700 18012KT P6SM SCT025 BKN080=

USA.gov is the U.S. government's official web portal to all federal, state and local government web resources and services.